Time;durP1;ratioP1;P1;durP2;ratioP2;P2;SDS_P1;SDS_P2;PMS_P1;PMS_P2;Temp;Humidity;BMP_temperature;BMP_pressure;BME280_temperature;BME280_humidity;BME280_pressure;Samples;Min_cycle;Max_cycle;Signal;HPM_P1;HPM_P2
2022/11/19 00:02:11;;;;;;;22.22;14.45;;;;;;;-2.30;76.59;99644.67;2191485;80;21006;-81
2022/11/19 00:05:12;;;;;;;26.07;15.55;;;;;;;-2.26;76.73;99645.66;2198761;80;21040;-84
2022/11/19 00:08:18;;;;;;;25.50;15.70;;;;;;;-2.20;76.83;99651.41;2192230;80;21027;-84
2022/11/19 00:14:45;;;;;;;25.10;14.60;;;;;;;-2.10;76.88;99646.84;2187038;80;20991;-83
2022/11/19 00:17:46;;;;;;;27.30;15.05;;;;;;;-2.11;76.59;99651.67;2161797;81;21336;-82
2022/11/19 00:20:49;;;;;;;24.18;15.53;;;;;;;-2.11;76.60;99653.42;2195435;79;20993;-82
2022/11/19 00:23:54;;;;;;;25.55;14.35;;;;;;;-2.12;76.59;99649.16;2200294;79;21055;-82
2022/11/19 00:26:55;;;;;;;22.60;13.40;;;;;;;-2.14;76.23;99665.31;2174598;81;21024;-84
2022/11/19 00:29:56;;;;;;;27.90;14.70;;;;;;;-2.20;76.28;99672.20;2197448;80;20991;-84
2022/11/19 00:32:57;;;;;;;27.60;15.80;;;;;;;-2.24;76.45;99670.27;2192730;80;21035;-84
2022/11/19 00:35:59;;;;;;;25.77;15.00;;;;;;;-2.27;76.50;99677.80;2195154;80;20985;-81
2022/11/19 00:39:00;;;;;;;24.40;15.35;;;;;;;-2.28;76.34;99671.38;2163493;81;21044;-84
2022/11/19 00:42:01;;;;;;;25.35;14.93;;;;;;;-2.31;76.45;99684.12;2205170;79;21028;-84
2022/11/19 00:45:03;;;;;;;24.80;15.08;;;;;;;-2.29;76.54;99683.55;2191625;79;21577;-84
2022/11/19 00:48:04;;;;;;;30.08;16.30;;;;;;;-2.26;76.56;99676.02;2175842;80;20967;-82
2022/11/19 00:51:07;;;;;;;25.43;15.40;;;;;;;-2.29;76.31;99675.75;2190380;80;21056;-84
2022/11/19 00:54:08;;;;;;;32.08;16.85;;;;;;;-2.30;76.51;99684.48;2195318;80;21037;-83
2022/11/19 00:57:11;;;;;;;29.10;16.00;;;;;;;-2.26;76.63;99694.22;2190641;80;21049;-82
2022/11/19 01:00:16;;;;;;;33.58;16.70;;;;;;;-2.20;76.61;99694.30;2194351;80;20998;-84
2022/11/19 01:03:17;;;;;;;30.60;17.00;;;;;;;-2.21;76.54;99686.97;2191349;80;20998;-84
2022/11/19 01:06:21;;;;;;;28.05;15.70;;;;;;;-2.15;76.74;99683.98;2193700;80;21007;-83
2022/11/19 01:09:23;;;;;;;29.70;16.02;;;;;;;-2.12;76.36;99682.95;2193885;80;21050;-84
2022/11/19 01:12:24;;;;;;;28.52;15.85;;;;;;;-2.15;76.09;99694.85;2191332;80;21031;-83
2022/11/19 01:15:25;;;;;;;26.20;15.70;;;;;;;-2.18;75.88;99688.55;2192821;80;21440;-83
2022/11/19 01:18:27;;;;;;;23.90;14.38;;;;;;;-2.22;76.06;99683.16;2196518;80;20969;-82
2022/11/19 01:21:32;;;;;;;31.65;15.30;;;;;;;-2.22;76.15;99685.75;2192762;80;21100;-83
2022/11/19 01:24:33;;;;;;;32.03;16.82;;;;;;;-2.21;76.29;99688.74;2161799;82;20986;-81
2022/11/19 01:27:34;;;;;;;30.72;15.85;;;;;;;-2.17;76.41;99690.20;2177480;81;21117;-83
2022/11/19 01:30:41;;;;;;;25.70;15.65;;;;;;;-2.13;76.34;99683.91;2191398;80;21000;-83
2022/11/19 01:33:43;;;;;;;26.57;14.83;;;;;;;-2.13;76.45;99686.03;2189790;80;20969;-83
2022/11/19 01:36:44;;;;;;;24.82;16.15;;;;;;;-2.14;76.30;99691.31;2192879;80;21049;-84
2022/11/19 01:39:45;;;;;;;24.75;14.58;;;;;;;-2.18;76.41;99690.67;2195405;80;21379;-83
2022/11/19 01:42:49;;;;;;;24.12;13.25;;;;;;;-2.19;76.23;99690.79;2195496;80;21161;-83
2022/11/19 01:45:53;;;;;;;27.80;15.23;;;;;;;-2.19;75.73;99697.28;2193102;80;20973;-84
2022/11/19 01:48:58;;;;;;;20.37;13.28;;;;;;;-2.27;75.88;99693.39;2196587;80;21056;-83
2022/11/19 01:52:02;;;;;;;22.70;13.20;;;;;;;-2.33;75.82;99701.57;2198086;80;21068;-83
2022/11/19 01:55:04;;;;;;;20.50;11.85;;;;;;;-2.39;75.65;99700.66;2198935;80;20994;-84
2022/11/19 01:58:06;;;;;;;21.93;12.70;;;;;;;-2.44;75.74;99694.91;2189207;80;21038;-83
2022/11/19 02:01:09;;;;;;;20.95;12.53;;;;;;;-2.47;75.83;99696.39;2192884;80;21642;-83
2022/11/19 02:04:13;;;;;;;23.32;12.65;;;;;;;-2.47;76.02;99708.09;2198227;80;21100;-81
2022/11/19 02:07:15;;;;;;;21.05;12.93;;;;;;;-2.46;75.94;99704.55;2193995;80;21068;-84
2022/11/19 02:10:16;;;;;;;22.45;13.22;;;;;;;-2.44;76.14;99703.17;2162461;82;20990;-82
2022/11/19 02:13:47;;;;;;;22.32;12.70;;;;;;;-2.45;75.86;99703.61;2221662;79;21525;-82
2022/11/19 02:17:01;;;;;;;;;;;;;;;-2.45;75.68;99711.40;2178805;81;21512;-82
2022/11/19 02:20:27;;;;;;;23.92;13.20;;;;;;;-2.45;75.74;99700.17;2174335;81;20106;-82
2022/11/19 02:23:51;;;;;;;18.07;12.68;;;;;;;-2.42;75.82;99702.59;2155839;81;21050;-80
2022/11/19 02:27:31;;;;;;;21.57;13.05;;;;;;;-2.44;75.62;99700.56;2170720;80;21026;-82
2022/11/19 02:30:47;;;;;;;23.47;14.33;;;;;;;-2.50;75.47;99709.58;2196334;80;21061;-80
2022/11/19 02:34:07;;;;;;;24.35;15.48;;;;;;;-2.51;75.66;99715.20;2189966;80;21091;-83
2022/11/19 02:37:22;;;;;;;24.35;14.70;;;;;;;-2.47;75.78;99718.48;2166842;80;21587;-82
2022/11/19 02:40:41;;;;;;;24.05;14.43;;;;;;;-2.40;76.00;99724.13;2177720;81;21018;-83
2022/11/19 02:43:44;;;;;;;26.62;14.90;;;;;;;-2.31;75.96;99726.15;2181752;81;21603;-81
2022/11/19 02:46:49;;;;;;;24.92;14.85;;;;;;;-2.31;75.78;99729.61;2185618;81;20986;-83
2022/11/19 02:49:56;;;;;;;23.95;14.73;;;;;;;-2.36;75.74;99730.34;2181970;81;21581;-82
2022/11/19 02:52:57;;;;;;;22.85;14.00;;;;;;;-2.38;75.79;99736.09;2214506;80;21591;-83
2022/11/19 02:56:19;;;;;;;22.35;12.13;;;;;;;-2.43;75.73;99733.41;2175766;81;21015;-82
2022/11/19 03:04:28;;;;;;;20.12;12.63;;;;;;;-2.55;75.68;99744.08;2180698;81;21054;-82
2022/11/19 03:06:18;;;;;;;19.52;12.45;;;;;;;-2.59;75.75;99752.97;2180408;80;21030;-81
2022/11/19 03:09:21;;;;;;;18.65;12.45;;;;;;;-2.60;75.80;99752.61;2187512;81;20999;-82
2022/11/19 03:12:48;;;;;;;21.85;12.53;;;;;;;-2.65;75.66;99745.55;2182434;81;21067;-82
2022/11/19 03:19:31;;;;;;;21.02;13.13;;;;;;;-2.81;75.65;99745.18;2186963;81;21599;-81
2022/11/19 03:23:01;;;;;;;22.30;13.03;;;;;;;-2.84;75.79;99757.05;2178449;81;21472;-83
2022/11/19 03:26:25;;;;;;;18.73;10.48;;;;;;;-2.82;75.79;99760.84;2187390;80;21588;-82
2022/11/19 03:29:28;;;;;;;23.83;13.43;;;;;;;-2.84;75.74;99760.95;2181685;81;21057;-83
2022/11/19 03:32:37;;;;;;;18.67;11.93;;;;;;;-2.88;75.75;99756.02;2191102;81;21009;-83
2022/11/19 03:35:53;;;;;;;19.48;12.20;;;;;;;-2.90;75.68;99768.24;2181674;81;21081;-84
2022/11/19 03:38:57;;;;;;;21.80;12.82;;;;;;;-3.01;75.54;99763.23;2187888;80;21014;-84
2022/11/19 03:41:58;;;;;;;19.30;12.73;;;;;;;-3.05;75.66;99772.57;2208787;79;20982;-84
2022/11/19 03:45:08;;;;;;;18.92;12.23;;;;;;;-3.15;75.70;99770.98;2182136;80;21099;-83
2022/11/19 03:48:12;;;;;;;23.87;12.50;;;;;;;-3.18;75.80;99765.50;2175875;81;21088;-84
2022/11/19 03:51:25;;;;;;;20.75;13.00;;;;;;;-3.23;75.78;99774.48;2189486;81;20995;-84
2022/11/19 03:54:26;;;;;;;26.15;13.55;;;;;;;-3.30;75.83;99783.05;2163330;82;21048;-84
2022/11/19 03:57:27;;;;;;;21.42;12.15;;;;;;;-3.40;75.82;99784.52;2215056;80;21472;-84
2022/11/19 04:00:28;;;;;;;22.87;13.80;;;;;;;-3.56;75.70;99788.88;2179626;81;21041;-84
2022/11/19 04:03:29;;;;;;;21.07;12.53;;;;;;;-3.75;75.86;99791.17;2211296;80;21694;-84
2022/11/19 04:06:30;;;;;;;20.68;13.05;;;;;;;-3.85;76.15;99786.97;2169045;81;21626;-83
2022/11/19 04:09:31;;;;;;;21.23;13.58;;;;;;;-3.87;76.26;99784.91;2194666;81;21482;-84
2022/11/19 04:12:32;;;;;;;19.55;13.10;;;;;;;-3.87;76.36;99787.97;2196714;80;21061;-85
2022/11/19 04:15:33;;;;;;;23.30;14.55;;;;;;;-3.87;76.30;99793.16;2202336;80;21059;-84
2022/11/19 04:18:34;;;;;;;24.85;13.58;;;;;;;-3.85;76.23;99787.43;2197987;80;20985;-84
2022/11/19 04:21:35;;;;;;;24.82;14.25;;;;;;;-3.81;76.33;99789.39;2200598;80;21022;-84
2022/11/19 04:24:36;;;;;;;24.85;14.33;;;;;;;-3.73;76.45;99798.89;2197053;80;20958;-84
2022/11/19 04:27:37;;;;;;;23.80;13.58;;;;;;;-3.62;76.50;99801.26;2197344;80;21012;-84
2022/11/19 04:30:38;;;;;;;24.30;14.33;;;;;;;-3.53;76.42;99799.08;2197776;80;21517;-84
2022/11/19 04:33:39;;;;;;;23.42;13.08;;;;;;;-3.55;76.04;99802.21;2194788;80;21005;-84
2022/11/19 04:36:41;;;;;;;26.50;13.78;;;;;;;-3.59;75.87;99804.61;2195308;80;21005;-83
2022/11/19 04:39:42;;;;;;;24.15;13.75;;;;;;;-3.62;76.29;99812.93;2201139;80;21032;-84
2022/11/19 04:42:43;;;;;;;23.87;13.70;;;;;;;-3.63;76.55;99815.16;2198354;80;21093;-84
2022/11/19 04:45:44;;;;;;;29.05;15.60;;;;;;;-3.63;76.48;99813.03;2188949;81;21470;-83
2022/11/19 04:48:47;;;;;;;41.60;22.73;;;;;;;-3.70;76.28;99820.29;2187369;81;21908;-82
2022/11/19 04:51:47;;;;;;;38.45;22.05;;;;;;;-3.85;76.12;99827.61;2186843;81;20991;-84
2022/11/19 04:54:48;;;;;;;38.73;20.57;;;;;;;-3.95;76.15;99822.53;2188630;81;21047;-84
2022/11/19 04:57:51;;;;;;;39.23;19.95;;;;;;;-4.09;76.12;99826.69;2187560;81;20986;-85
2022/11/19 05:00:52;;;;;;;35.17;19.27;;;;;;;-4.12;76.28;99828.61;2193764;80;21476;-83
2022/11/19 05:03:53;;;;;;;32.23;17.10;;;;;;;-4.13;76.14;99827.78;2158394;82;21012;-83
2022/11/19 05:06:54;;;;;;;29.40;16.55;;;;;;;-4.12;76.26;99833.80;2157829;82;21088;-84
2022/11/19 05:09:55;;;;;;;27.42;16.02;;;;;;;-4.23;76.30;99829.16;2155901;82;21014;-84
2022/11/19 05:12:56;;;;;;;29.67;16.77;;;;;;;-4.44;76.22;99801.81;2157686;82;20955;-82
2022/11/19 05:15:57;;;;;;;27.80;16.07;;;;;;;-4.45;76.30;99824.72;2159453;82;21112;-83
2022/11/19 05:18:58;;;;;;;27.70;15.15;;;;;;;-4.58;76.30;99840.89;2156058;82;21069;-83
2022/11/19 05:21:59;;;;;;;33.30;17.95;;;;;;;-4.61;76.44;99837.62;2193306;80;20989;-85
2022/11/19 05:25:00;;;;;;;24.40;15.88;;;;;;;-4.66;77.00;99828.78;2170580;82;21006;-83
2022/11/19 05:28:01;;;;;;;32.28;16.00;;;;;;;-4.62;76.92;99832.88;2173064;82;21502;-85
2022/11/19 05:31:03;;;;;;;25.95;15.00;;;;;;;-4.59;76.93;99839.66;2168696;82;21070;-84
2022/11/19 05:34:04;;;;;;;31.05;16.02;;;;;;;-4.61;76.40;99848.82;2166401;82;21025;-85
2022/11/19 05:37:05;;;;;;;31.73;17.55;;;;;;;-4.67;76.19;99851.72;2171472;82;21116;-83
2022/11/19 05:40:07;;;;;;;36.00;17.23;;;;;;;-4.75;76.25;99846.09;2171058;82;20991;-83
2022/11/19 05:43:09;;;;;;;33.20;17.60;;;;;;;-4.74;76.32;99839.98;2176287;80;21514;-84
2022/11/19 05:46:10;;;;;;;34.63;17.25;;;;;;;-4.85;76.06;99845.69;2178011;81;21001;-84
2022/11/19 05:49:11;;;;;;;31.15;17.20;;;;;;;-4.89;76.14;99851.11;2206686;80;20982;-84
2022/11/19 05:52:12;;;;;;;28.17;15.72;;;;;;;-4.94;76.20;99847.91;2208638;80;20965;-84
2022/11/19 05:55:17;;;;;;;25.48;14.53;;;;;;;-5.01;76.13;99861.58;2212465;80;20973;-84
2022/11/19 05:58:20;;;;;;;27.32;15.95;;;;;;;-5.09;75.99;99859.38;2187287;79;21556;-83
2022/11/19 06:01:29;;;;;;;32.85;17.30;;;;;;;-5.17;76.18;99873.14;2190661;79;21513;-83
2022/11/19 06:04:30;;;;;;;30.30;16.40;;;;;;;-5.17;76.45;99880.91;2189829;79;20966;-82
2022/11/19 06:07:31;;;;;;;36.10;19.98;;;;;;;-5.21;76.40;99885.82;2197926;79;20990;-83
2022/11/19 06:10:32;;;;;;;39.88;20.00;;;;;;;-5.29;76.47;99886.20;2185517;79;21006;-81
2022/11/19 06:13:35;;;;;;;33.08;18.23;;;;;;;-5.38;76.58;99885.78;2156206;79;21005;-83
2022/11/19 06:16:36;;;;;;;35.98;18.30;;;;;;;-5.45;76.78;99891.24;2187032;79;21041;-84
2022/11/19 06:19:37;;;;;;;28.67;16.82;;;;;;;-5.48;77.01;99899.14;2182287;80;21021;-83
2022/11/19 06:22:39;;;;;;;29.75;17.45;;;;;;;-5.50;76.97;99910.46;2188801;80;21017;-83
2022/11/19 06:25:40;;;;;;;28.57;17.37;;;;;;;-5.51;77.09;99916.09;2197454;80;20998;-84
2022/11/19 06:28:41;;;;;;;33.58;17.20;;;;;;;-5.51;77.04;99915.27;2197837;80;20990;-81
2022/11/19 06:31:45;;;;;;;28.25;17.37;;;;;;;-5.53;77.09;99927.41;2193550;80;21541;-83
2022/11/19 06:34:47;;;;;;;32.80;18.23;;;;;;;-5.54;77.24;99929.16;2166115;81;21048;-83
2022/11/19 06:37:55;;;;;;;25.72;15.13;;;;;;;-5.50;77.30;99915.17;2213808;79;21002;-83
2022/11/19 06:40:56;;;;;;;29.35;16.82;;;;;;;-5.48;76.95;99922.41;2190730;80;21072;-83
2022/11/19 06:43:57;;;;;;;29.90;16.87;;;;;;;-5.48;77.01;99916.41;2165210;82;21128;-83
2022/11/19 06:46:58;;;;;;;29.40;17.15;;;;;;;-5.36;77.29;99906.78;2150897;81;21015;-83
2022/11/19 06:50:00;;;;;;;29.23;17.62;;;;;;;-5.20;77.53;99916.80;2198614;80;21724;-83
2022/11/19 06:53:01;;;;;;;27.52;16.42;;;;;;;-5.10;77.62;99921.08;2195849;80;21619;-81
2022/11/19 06:56:09;;;;;;;29.50;16.45;;;;;;;-4.96;77.43;99920.42;2162814;81;21080;-83
2022/11/19 06:59:10;;;;;;;29.87;17.62;;;;;;;-4.88;77.53;99927.83;2178013;81;21017;-84
2022/11/19 07:02:11;;;;;;;30.65;17.37;;;;;;;-4.72;77.89;99921.47;2191027;80;21071;-83
2022/11/19 07:05:13;;;;;;;25.75;16.50;;;;;;;-4.57;77.90;99916.36;2197428;80;21080;-84
2022/11/19 07:08:15;;;;;;;29.12;16.85;;;;;;;-4.48;77.71;99918.11;2193365;80;21064;-84
2022/11/19 07:11:27;;;;;;;28.42;17.05;;;;;;;-4.38;77.86;99927.95;2193773;80;21351;-83
2022/11/19 07:14:28;;;;;;;20.68;13.58;;;;;;;-4.22;78.31;99931.91;2196266;80;21468;-83
2022/11/19 07:17:29;;;;;;;34.53;19.77;;;;;;;-3.99;78.31;99948.05;2197382;80;21052;-81
2022/11/19 07:20:30;;;;;;;34.48;20.37;;;;;;;-3.82;78.40;99936.34;2192926;80;20966;-78
2022/11/19 07:23:31;;;;;;;35.55;19.50;;;;;;;-3.63;78.39;99940.11;2158929;82;20971;-79
2022/11/19 07:26:37;;;;;;;36.10;20.43;;;;;;;-3.52;78.13;99938.22;2174168;81;21465;-79
2022/11/19 07:29:38;;;;;;;37.00;19.62;;;;;;;-3.45;78.06;99935.69;2192012;80;21488;-82
2022/11/19 07:32:40;;;;;;;36.65;21.68;;;;;;;-3.28;78.22;99936.08;2195859;80;21033;-81
2022/11/19 07:35:42;;;;;;;38.23;22.90;;;;;;;-3.15;78.17;99943.58;2194172;80;21483;-80
2022/11/19 07:38:43;;;;;;;46.10;27.22;;;;;;;-3.05;78.08;99950.39;2194155;80;22384;-83
2022/11/19 07:45:07;;;;;;;47.62;27.37;;;;;;;-2.78;78.05;99950.63;2196556;80;21035;-83
2022/11/19 07:48:08;;;;;;;36.15;19.87;;;;;;;-2.61;78.03;99949.67;2198074;80;21101;-81
2022/11/19 07:51:09;;;;;;;36.05;20.00;;;;;;;-2.40;77.96;99948.90;2197017;80;21095;-78
2022/11/19 07:54:13;;;;;;;33.48;19.25;;;;;;;-2.15;77.75;99944.41;2190403;80;20994;-78
2022/11/19 07:57:14;;;;;;;34.38;18.92;;;;;;;-1.79;77.81;99932.28;2191374;80;21013;-82
2022/11/19 08:00:15;;;;;;;28.73;16.93;;;;;;;-1.34;77.57;99936.08;2201873;80;21600;-78
2022/11/19 08:03:18;;;;;;;26.10;16.30;;;;;;;-1.01;76.74;99936.56;2197649;80;21014;-83
2022/11/19 08:06:23;;;;;;;27.58;15.00;;;;;;;-0.64;76.67;99939.87;2196124;80;21037;-82
2022/11/19 08:09:24;;;;;;;28.87;16.90;;;;;;;-0.22;76.67;99945.82;2205499;80;21029;-84
2022/11/19 08:12:25;;;;;;;22.70;14.03;;;;;;;0.26;76.12;99951.27;2193135;80;22157;-82
2022/11/19 08:15:26;;;;;;;21.62;14.55;;;;;;;0.69;75.58;99938.67;2198344;80;21029;-83
2022/11/19 08:18:29;;;;;;;22.62;13.93;;;;;;;0.75;74.63;99946.06;2191106;80;21068;-77
2022/11/19 08:21:30;;;;;;;24.85;13.75;;;;;;;0.86;73.74;99941.39;2194299;80;21025;-75
2022/11/19 08:24:32;;;;;;;24.85;14.45;;;;;;;1.12;74.32;99935.59;2192320;80;21052;-85
2022/11/19 08:27:33;;;;;;;28.45;14.78;;;;;;;1.47;73.99;99933.52;2187617;80;21069;-86
2022/11/19 08:30:34;;;;;;;21.35;14.53;;;;;;;1.68;73.53;99936.31;2196488;80;21095;-86
2022/11/19 08:33:35;;;;;;;19.73;13.13;;;;;;;1.99;73.30;99929.12;2200182;80;20993;-77
2022/11/19 08:36:37;;;;;;;18.05;12.47;;;;;;;2.33;73.09;99925.72;2200260;80;21054;-85
2022/11/19 08:39:39;;;;;;;20.82;12.58;;;;;;;2.71;72.83;99927.15;2194281;80;21591;-84
2022/11/19 08:45:59;;;;;;;17.62;11.65;;;;;;;3.72;72.56;99928.97;2188714;80;21643;-88
2022/11/19 08:49:00;;;;;;;17.82;11.60;;;;;;;3.80;71.18;99931.78;2197180;80;21008;-86
2022/11/19 08:52:01;;;;;;;18.45;12.03;;;;;;;4.02;70.29;99933.91;2159227;82;21438;-86
2022/11/19 08:55:03;;;;;;;13.95;9.80;;;;;;;4.00;69.93;99930.11;2154054;82;21604;-76
2022/11/19 08:58:06;;;;;;;15.05;10.93;;;;;;;4.12;69.84;99937.92;2155202;82;21013;-79
2022/11/19 09:01:10;;;;;;;13.35;10.00;;;;;;;4.30;69.05;99940.28;2161955;82;21055;-79
2022/11/19 09:04:11;;;;;;;14.03;10.13;;;;;;;4.48;68.83;99937.89;2193503;80;21031;-79
2022/11/19 09:07:12;;;;;;;15.15;10.48;;;;;;;4.53;67.55;99941.42;2189030;81;20940;-78
2022/11/19 09:10:13;;;;;;;14.50;10.75;;;;;;;4.14;67.15;99949.96;2151539;82;22148;-79
2022/11/19 09:13:14;;;;;;;27.52;16.93;;;;;;;4.24;67.26;99951.31;2149578;82;21064;-78
2022/11/19 09:16:16;;;;;;;18.77;11.60;;;;;;;4.42;67.16;99949.77;2149379;83;21008;-79
2022/11/19 09:19:17;;;;;;;14.75;9.88;;;;;;;4.46;65.99;99950.33;2150091;82;21005;-79
2022/11/19 09:22:18;;;;;;;12.43;9.18;;;;;;;4.28;65.61;99944.86;2194856;80;21076;-79
2022/11/19 09:25:19;;;;;;;14.45;10.08;;;;;;;4.20;65.54;99953.86;2192713;80;21543;-78
2022/11/19 09:28:20;;;;;;;10.70;8.63;;;;;;;4.23;65.24;99964.11;2159010;82;20966;-79
2022/11/19 09:31:22;;;;;;;10.72;7.97;;;;;;;4.23;64.85;99970.67;2196091;80;21463;-78
2022/11/19 09:34:23;;;;;;;11.75;9.10;;;;;;;4.35;64.31;99969.63;2162631;82;21036;-79
2022/11/19 09:37:24;;;;;;;11.20;8.75;;;;;;;4.30;63.82;99961.30;2157508;82;20998;-78
2022/11/19 09:40:25;;;;;;;13.78;8.78;;;;;;;4.21;63.07;99962.08;2167256;82;21048;-79
2022/11/19 09:43:32;;;;;;;13.08;9.38;;;;;;;4.23;63.39;99956.23;2168404;82;21029;-78
2022/11/19 09:47:27;;;;;;;11.08;8.75;;;;;;;4.10;63.10;99951.65;2209497;80;21085;-78
2022/11/19 09:50:34;;;;;;;12.20;9.30;;;;;;;4.14;63.23;99945.16;2187421;80;20985;-78
2022/11/19 09:53:53;;;;;;;14.10;10.03;;;;;;;4.21;63.04;99942.38;2188200;80;21572;-78
2022/11/19 09:56:55;;;;;;;13.48;9.55;;;;;;;4.22;62.54;99943.58;2193998;80;21013;-79
2022/11/19 10:00:00;;;;;;;12.30;8.95;;;;;;;4.26;61.91;99941.03;2183856;80;21564;-79
2022/11/19 10:03:06;;;;;;;12.80;9.18;;;;;;;3.97;61.52;99943.50;2182236;80;21034;-79
2022/11/19 10:06:19;;;;;;;13.25;9.60;;;;;;;3.97;61.98;99939.56;2182828;80;21110;-78
2022/11/19 10:09:27;;;;;;;12.85;10.15;;;;;;;4.21;61.94;99939.75;2185714;80;21069;-78
2022/11/19 10:13:14;;;;;;;12.65;9.43;;;;;;;4.29;61.49;99934.69;2160741;80;21071;-78
2022/11/19 10:16:51;;;;;;;13.30;8.25;;;;;;;4.36;61.43;99936.30;2190317;80;22212;-76
2022/11/19 10:20:13;;;;;;;12.23;9.43;;;;;;;4.32;60.03;99940.98;2188364;80;21036;-74
2022/11/19 10:23:41;;;;;;;12.98;9.18;;;;;;;3.92;60.18;99940.42;2191478;80;21020;-77
2022/11/19 10:26:54;;;;;;;14.93;10.03;;;;;;;3.76;60.42;99933.47;2181175;80;21008;-75
2022/11/19 10:30:03;;;;;;;13.68;9.60;;;;;;;3.65;60.56;99938.29;2189486;80;21006;-76
2022/11/19 10:33:14;;;;;;;12.58;9.10;;;;;;;3.70;60.50;99936.12;2185643;80;21041;-76
2022/11/19 10:36:30;;;;;;;12.45;9.03;;;;;;;3.78;60.14;99938.12;2195465;80;21099;-76
2022/11/19 10:39:41;;;;;;;13.90;9.08;;;;;;;3.87;60.12;99929.47;2192322;80;21465;-75
2022/11/19 10:42:49;;;;;;;11.10;8.48;;;;;;;3.75;59.88;99927.39;2192876;80;21065;-75
2022/11/19 10:45:57;;;;;;;11.05;8.80;;;;;;;3.73;59.82;99922.74;2189500;80;21043;-76
2022/11/19 10:49:04;;;;;;;12.63;8.58;;;;;;;3.67;59.17;99927.19;2167068;81;21021;-76
2022/11/19 10:52:30;;;;;;;12.25;9.30;;;;;;;3.39;58.18;99926.01;2157963;81;21042;-74
2022/11/19 10:55:40;;;;;;;14.20;8.68;;;;;;;2.90;58.19;99926.88;2188801;80;21585;-75
2022/11/19 10:58:59;;;;;;;15.23;9.83;;;;;;;2.59;58.24;99923.23;2180239;81;21006;-75
2022/11/19 11:02:18;;;;;;;14.65;11.00;;;;;;;2.42;58.61;99919.76;2184268;80;21536;-76
2022/11/19 11:05:19;;;;;;;17.45;11.85;;;;;;;2.27;59.00;99915.72;2179727;81;21051;-76
2022/11/19 11:08:20;;;;;;;18.17;11.95;;;;;;;2.15;59.05;99914.89;2180445;81;21069;-75
2022/11/19 11:14:53;;;;;;;15.35;9.95;;;;;;;2.42;58.99;99921.06;2179773;81;21518;-75
2022/11/19 11:18:09;;;;;;;17.12;11.90;;;;;;;2.27;58.33;99923.58;2178742;81;20951;-76
2022/11/19 11:21:33;;;;;;;21.75;12.45;;;;;;;2.20;58.86;99924.06;2180077;81;20998;-76
2022/11/19 11:24:38;;;;;;;15.35;10.88;;;;;;;2.32;58.96;99924.06;2175445;81;21607;-75
2022/11/19 11:27:41;;;;;;;21.33;13.80;;;;;;;2.22;58.63;99920.85;2188271;80;22259;-76
2022/11/19 11:31:04;;;;;;;21.90;12.85;;;;;;;2.20;59.08;99913.58;2183320;81;21001;-76
2022/11/19 11:34:29;;;;;;;24.87;13.10;;;;;;;2.35;59.15;99914.66;2180821;80;21585;-75
2022/11/19 11:37:33;;;;;;;26.12;13.60;;;;;;;2.45;58.25;99908.59;2174476;81;21362;-75
2022/11/19 11:40:34;;;;;;;19.25;12.00;;;;;;;2.54;58.02;99910.14;2177631;80;21017;-75
2022/11/19 11:43:39;;;;;;;18.55;12.10;;;;;;;2.52;58.28;99904.17;2180673;81;20936;-76
2022/11/19 11:46:46;;;;;;;24.75;13.83;;;;;;;2.55;58.20;99907.38;2192471;80;21021;-77
2022/11/19 11:50:05;;;;;;;27.02;16.75;;;;;;;2.55;58.55;99907.86;2191991;80;21056;-75
2022/11/19 11:53:11;;;;;;;24.07;16.05;;;;;;;2.44;58.09;99903.45;2186761;80;21049;-77
2022/11/19 11:56:11;;;;;;;22.15;14.13;;;;;;;2.26;58.09;99899.19;2191821;80;21025;-82
2022/11/19 11:59:30;;;;;;;20.65;13.28;;;;;;;2.15;57.85;99900.01;2188788;80;21550;-78
2022/11/19 12:02:34;;;;;;;21.42;13.50;;;;;;;2.09;57.73;99895.25;2163155;80;21030;-80
2022/11/19 12:06:02;;;;;;;21.25;13.40;;;;;;;2.09;57.95;99893.12;2188806;79;21301;-81
2022/11/19 12:09:38;;;;;;;24.37;14.70;;;;;;;2.02;57.53;99894.87;2180392;79;20997;-77
2022/11/19 12:12:50;;;;;;;25.32;16.57;;;;;;;1.91;57.51;99901.87;2193293;79;21054;-77
2022/11/19 12:16:02;;;;;;;29.60;18.15;;;;;;;1.60;57.77;99895.03;2183892;79;21028;-77
2022/11/19 12:19:41;;;;;;;29.42;17.17;;;;;;;1.30;57.76;99896.86;2194941;79;21002;-77
2022/11/19 12:23:13;;;;;;;24.92;16.02;;;;;;;1.02;58.12;99901.48;2190104;80;21043;-76
2022/11/19 12:26:42;;;;;;;29.00;17.27;;;;;;;0.80;58.29;99907.88;2189735;80;21076;-77
2022/11/19 12:30:01;;;;;;;26.97;16.85;;;;;;;0.62;58.37;99904.33;2190639;80;21034;-76
2022/11/19 12:33:35;;;;;;;33.65;18.57;;;;;;;0.59;58.63;99901.08;2191102;80;20994;-76
2022/11/19 12:36:57;;;;;;;28.62;17.17;;;;;;;0.55;58.86;99895.72;2189003;80;21080;-81
2022/11/19 12:40:18;;;;;;;21.60;13.25;;;;;;;0.67;58.69;99898.77;2187364;80;21044;-80
2022/11/19 12:43:39;;;;;;;;;;;;;;;0.72;58.08;99897.14;2194426;80;21800;-81
2022/11/19 12:46:56;;;;;;;;;;;;;;;0.74;58.10;99896.57;2185949;80;20509;-81
2022/11/19 12:50:21;;;;;;;21.55;12.98;;;;;;;0.80;57.36;99899.56;2180759;81;20173;-80
2022/11/19 12:53:45;;;;;;;19.57;12.40;;;;;;;0.74;56.97;99895.27;2179548;81;21109;-79
2022/11/19 12:56:57;;;;;;;18.60;11.63;;;;;;;0.58;57.51;99896.33;2181546;81;21066;-79
2022/11/19 13:00:20;;;;;;;16.05;9.50;;;;;;;0.55;57.80;99898.34;2169903;81;21052;-79
2022/11/19 13:03:48;;;;;;;13.30;9.05;;;;;;;0.47;56.58;99898.03;2175343;80;20978;-82
2022/11/19 13:07:19;;;;;;;14.63;8.93;;;;;;;0.31;56.72;99902.17;2141240;81;21090;-81
2022/11/19 13:10:25;;;;;;;14.75;10.13;;;;;;;0.14;56.87;99900.28;2183654;81;21068;-81
2022/11/19 13:13:28;;;;;;;18.87;11.60;;;;;;;0.15;57.06;99899.34;2179712;81;21602;-82
2022/11/19 13:16:33;;;;;;;17.37;11.28;;;;;;;0.14;57.20;99900.73;2183633;80;21040;-83
2022/11/19 13:19:37;;;;;;;20.82;11.78;;;;;;;0.10;57.59;99900.11;2179253;81;20986;-89
2022/11/19 13:22:43;;;;;;;14.73;10.78;;;;;;;0.11;57.90;99894.42;2177768;81;21006;-83
2022/11/19 13:25:49;;;;;;;22.85;11.30;;;;;;;0.03;57.71;99891.50;2180688;81;21014;-82
2022/11/19 13:28:55;;;;;;;18.60;11.28;;;;;;;-0.06;57.88;99898.19;2151682;81;21076;-82
2022/11/19 13:32:16;;;;;;;18.07;11.50;;;;;;;-0.14;57.82;99894.81;2176966;81;21015;-82
2022/11/19 13:35:23;;;;;;;17.37;11.38;;;;;;;-0.15;58.07;99890.52;2181623;81;21084;-86
2022/11/19 13:38:57;;;;;;;16.55;11.00;;;;;;;-0.14;58.25;99892.20;2182470;81;20997;-82
2022/11/19 13:45:22;;;;;;;16.12;10.30;;;;;;;-0.12;58.27;99898.12;2182762;80;21027;-83
2022/11/19 13:48:28;;;;;;;15.00;9.95;;;;;;;-0.11;58.36;99894.60;2161211;80;20982;-81
2022/11/19 13:51:55;;;;;;;15.95;9.03;;;;;;;-0.19;57.81;99896.89;2173449;80;21086;-77
2022/11/19 13:54:58;;;;;;;11.65;8.33;;;;;;;-0.29;58.02;99900.57;2173712;80;21514;-78
2022/11/19 13:58:16;;;;;;;14.73;8.65;;;;;;;-0.40;57.70;99893.10;2177011;81;21002;-78
2022/11/19 14:01:41;;;;;;;16.32;9.05;;;;;;;-0.53;57.88;99899.14;2176212;80;21033;-75
2022/11/19 14:05:13;;;;;;;13.62;9.05;;;;;;;-0.56;58.06;99894.61;2172733;81;21034;-79
2022/11/19 14:08:41;;;;;;;13.83;9.53;;;;;;;-0.62;57.87;99889.33;2176625;81;21037;-76
2022/11/19 14:11:50;;;;;;;18.03;10.30;;;;;;;-0.70;57.72;99886.39;2193029;80;21619;-80
2022/11/19 14:26:44;;;;;;;16.20;9.63;;;;;;;-1.04;58.20;99892.48;2203799;80;21374;-80
2022/11/19 14:29:51;;;;;;;16.77;10.48;;;;;;;-1.03;60.26;99891.54;2201958;80;21076;-80
2022/11/19 14:32:52;;;;;;;14.85;9.70;;;;;;;-0.93;58.78;99880.05;2165707;80;21010;-82
2022/11/19 14:35:53;;;;;;;16.10;9.80;;;;;;;-1.04;58.09;99874.70;2197402;80;21037;-76
2022/11/19 14:39:00;;;;;;;17.17;10.90;;;;;;;-1.14;58.33;99879.67;2158543;81;21036;-84
2022/11/19 14:42:24;;;;;;;16.65;10.15;;;;;;;-1.21;58.50;99887.49;2216901;79;21014;-81
2022/11/19 14:45:32;;;;;;;24.43;11.33;;;;;;;-1.28;58.52;99884.45;2152265;81;21024;-81
2022/11/19 14:48:48;;;;;;;17.32;10.70;;;;;;;-1.34;58.69;99890.52;2209648;79;20999;-80
2022/11/19 14:51:56;;;;;;;20.12;11.30;;;;;;;-1.42;58.74;99883.19;2177130;81;21043;-80
2022/11/19 14:55:03;;;;;;;19.77;11.22;;;;;;;-1.47;58.88;99879.55;2179143;81;21006;-80
2022/11/19 14:58:19;;;;;;;17.57;10.80;;;;;;;-1.54;58.89;99882.19;2165378;81;21056;-81
2022/11/19 15:01:23;;;;;;;25.37;14.63;;;;;;;-1.60;59.14;99886.48;2176931;79;21023;-79
2022/11/19 15:05:00;;;;;;;;;;;;;;;;;;;;;
2022/11/19 15:08:19;;;;;;;18.67;11.12;;;;;;;-1.71;59.34;99879.80;2176601;81;21128;-81